Ashford, Washington
Current Conditions -  °F | °C
As of 9:58 PM on Thursday 18 Dec 2014 (Local Time) from KGRF Reporting Station
Drizzle Drizzle  
Wind Chill: 45°   Ceiling: 4900
Heat Index: 48°   Visibility: 10mi
Dew Point: 48°   Wind: 8mph
Humidity: 99%   Direction: 140°SE
Pressure: 29.73"   Gusts: NA
Location:  46.76°N, 122.03°W
Report Text: KGRF 190558Z AUTO 14007KT 10SM DZ OVC049 09/09 A2973 RMK AO2 DZE41RAB41E51DZB51 SLP072 P0002 60011 T00910089 10096 20085 55002 $
Loading
Personal Weather Stations






























Interactive Weather Map New forecast layout! Learn more

10-Day Weather Forecast

Advertisements
Track Severe Weather on mobile